createdAt,value
2023-05-10T00:00:58.618Z,99915.34
2023-05-10T00:03:26.157Z,99923.78
2023-05-10T00:05:53.944Z,99903.81
2023-05-10T00:08:21.313Z,99905.97
2023-05-10T00:10:48.894Z,99905.59
2023-05-10T00:13:16.591Z,99902.91
2023-05-10T00:15:44.173Z,99903.28
2023-05-10T00:18:11.463Z,99903.63
2023-05-10T00:20:39.299Z,99908.00
2023-05-10T00:23:06.766Z,99895.19
2023-05-10T00:25:34.330Z,99896.59
2023-05-10T00:28:02.961Z,99888.03
2023-05-10T00:30:30.614Z,99879.97
2023-05-10T00:32:57.837Z,99885.63
2023-05-10T00:35:25.726Z,99867.50
2023-05-10T00:37:53.033Z,99877.16
2023-05-10T00:40:22.165Z,99874.47
2023-05-10T00:42:54.532Z,99868.16
2023-05-10T00:45:22.466Z,99863.78
2023-05-10T00:47:49.867Z,99866.97
2023-05-10T00:50:18.855Z,99861.19
2023-05-10T00:52:49.909Z,99859.13
2023-05-10T00:55:18.977Z,99859.03
2023-05-10T00:57:46.776Z,99871.41
2023-05-10T01:00:19.150Z,99877.72
2023-05-10T01:02:47.589Z,99867.13
2023-05-10T01:05:15.405Z,99847.06
2023-05-10T01:07:42.674Z,99851.22
2023-05-10T01:10:12.059Z,99850.78
2023-05-10T01:12:42.186Z,99839.94
2023-05-10T01:15:12.462Z,99837.88
2023-05-10T01:17:43.519Z,99845.75
2023-05-10T01:20:12.693Z,99844.94
2023-05-10T01:23:03.682Z,99844.13
2023-05-10T01:25:37.085Z,99835.94
2023-05-10T01:28:26.229Z,99844.75
2023-05-10T01:31:11.898Z,99846.97
2023-05-10T01:33:53.686Z,99835.47
2023-05-10T01:36:31.997Z,99822.19
2023-05-10T01:39:12.555Z,99824.31
2023-05-10T01:41:58.576Z,99828.69
2023-05-10T01:44:41.385Z,99828.50
2023-05-10T01:47:54.923Z,99839.28
2023-05-10T01:50:29.744Z,99825.09
2023-05-10T01:53:00.233Z,99828.41
2023-05-10T01:55:32.105Z,99830.38
2023-05-10T01:58:24.732Z,99816.44
2023-05-10T02:00:54.312Z,99818.03
2023-05-10T02:03:28.452Z,99815.22
2023-05-10T02:05:57.563Z,99816.06
2023-05-10T02:08:26.279Z,99807.34
2023-05-10T02:10:56.098Z,99822.66
2023-05-10T02:13:25.840Z,99803.63
2023-05-10T02:15:55.787Z,99824.97
2023-05-10T02:18:25.055Z,99805.47
2023-05-10T02:20:55.019Z,99779.66
2023-05-10T02:23:24.399Z,99802.59
2023-05-10T02:25:53.427Z,99794.06
2023-05-10T02:28:24.642Z,99784.50
2023-05-10T02:30:53.430Z,99796.00
2023-05-10T02:33:22.717Z,99788.31
2023-05-10T02:35:52.160Z,99788.31
2023-05-10T02:38:23.810Z,99794.97
2023-05-10T02:40:53.183Z,99794.59
2023-05-10T02:43:24.561Z,99791.09
2023-05-10T02:45:52.343Z,99784.59
2023-05-10T02:48:19.611Z,99789.13
2023-05-10T02:50:52.505Z,99792.66
2023-05-10T02:53:24.468Z,99785.50
2023-05-10T02:55:53.981Z,99788.59
2023-05-10T02:58:22.206Z,99773.16
2023-05-10T03:00:50.083Z,99776.31
2023-05-10T03:03:17.421Z,99780.84
2023-05-10T03:05:45.101Z,99769.91
2023-05-10T03:08:12.740Z,99767.38
2023-05-10T03:11:06.529Z,99769.06
2023-05-10T03:13:40.378Z,99777.16
2023-05-10T03:16:16.671Z,99766.66
2023-05-10T03:19:17.262Z,99772.63
2023-05-10T03:21:51.074Z,99768.53
2023-05-10T03:24:23.543Z,99769.44
2023-05-10T03:26:54.159Z,99775.19
2023-05-10T03:29:23.105Z,99782.44
2023-05-10T03:31:50.826Z,99783.72
2023-05-10T03:34:18.548Z,99777.31
2023-05-10T03:36:46.183Z,99780.00
2023-05-10T03:39:13.460Z,99774.06
2023-05-10T03:41:41.485Z,99774.91
2023-05-10T03:44:09.782Z,99768.69
2023-05-10T03:46:37.311Z,99778.22
2023-05-10T03:49:04.705Z,99777.88
2023-05-10T03:51:32.715Z,99759.00
2023-05-10T03:53:59.969Z,99755.09
2023-05-10T03:56:27.789Z,99761.00
2023-05-10T03:58:55.203Z,99768.22
2023-05-10T04:01:24.159Z,99774.22
2023-05-10T04:03:51.630Z,99754.34
2023-05-10T04:06:19.504Z,99777.25
2023-05-10T04:08:46.951Z,99778.34
2023-05-10T04:11:15.262Z,99778.00
2023-05-10T04:13:42.547Z,99775.56
2023-05-10T04:16:10.275Z,99785.22
2023-05-10T04:18:37.596Z,99779.63
2023-05-10T04:21:05.530Z,99784.66
2023-05-10T04:23:32.792Z,99784.47
2023-05-10T04:26:02.084Z,99791.25
2023-05-10T04:28:29.468Z,99781.69
2023-05-10T04:31:07.793Z,99811.66
2023-05-10T04:33:35.525Z,99797.53
2023-05-10T04:36:04.291Z,99790.09
2023-05-10T04:38:31.701Z,99796.91
2023-05-10T04:41:09.862Z,99790.13
2023-05-10T04:43:38.800Z,99789.09
2023-05-10T04:46:06.737Z,99787.22
2023-05-10T04:48:34.692Z,99798.91
2023-05-10T04:51:02.530Z,99789.41
2023-05-10T04:53:29.782Z,99785.25
2023-05-10T04:55:57.369Z,99776.50
2023-05-10T04:58:24.733Z,99788.63
2023-05-10T05:00:52.688Z,99787.22
2023-05-10T05:03:20.379Z,99776.41
2023-05-10T05:05:48.030Z,99781.25
2023-05-10T05:08:15.414Z,99794.03
2023-05-10T05:10:42.989Z,99786.84
2023-05-10T05:13:10.323Z,99800.44
2023-05-10T05:15:37.903Z,99795.69
2023-05-10T05:18:05.463Z,99767.59
2023-05-10T05:20:35.331Z,99794.50
2023-05-10T05:23:22.426Z,99797.69
2023-05-10T05:25:50.013Z,99805.41
2023-05-10T05:28:17.213Z,99804.56
2023-05-10T05:30:44.693Z,99798.13
2023-05-10T05:33:14.855Z,99808.78
2023-05-10T05:35:45.824Z,99802.75
2023-05-10T05:38:13.265Z,99803.16
2023-05-10T05:40:41.147Z,99806.44
2023-05-10T05:43:08.683Z,99789.59
2023-05-10T05:45:36.289Z,99787.47
2023-05-10T05:48:03.813Z,99803.34
2023-05-10T05:50:31.577Z,99796.06
2023-05-10T05:52:59.180Z,99787.09
2023-05-10T05:55:27.932Z,99793.91
2023-05-10T05:57:55.741Z,99798.06
2023-05-10T06:00:23.833Z,99801.88
2023-05-10T06:02:51.731Z,99813.97
2023-05-10T06:05:19.178Z,99807.44
2023-05-10T06:07:47.179Z,99800.72
2023-05-10T06:10:14.529Z,99801.09
2023-05-10T06:12:42.149Z,99805.00
2023-05-10T06:15:10.215Z,99783.91
2023-05-10T06:17:37.946Z,99811.59
2023-05-10T06:20:08.253Z,99811.00
2023-05-10T06:22:36.234Z,99809.59
2023-05-10T06:25:03.795Z,99814.56
2023-05-10T06:27:31.512Z,99819.38
2023-05-10T06:30:11.918Z,99801.84
2023-05-10T06:32:40.901Z,99816.25
2023-05-10T06:35:09.059Z,99838.47
2023-05-10T06:37:36.829Z,99818.53
2023-05-10T06:40:09.463Z,99803.63
2023-05-10T06:42:39.185Z,99825.13
2023-05-10T06:45:07.142Z,99806.00
2023-05-10T06:47:36.537Z,99803.53
2023-05-10T06:50:06.637Z,99804.94
2023-05-10T06:52:34.281Z,99810.72
2023-05-10T06:55:01.793Z,99806.09
2023-05-10T06:57:31.732Z,99814.91
2023-05-10T07:00:00.731Z,99817.78
2023-05-10T07:02:28.646Z,99809.13
2023-05-10T07:04:56.742Z,99816.44
2023-05-10T07:07:25.882Z,99801.91
2023-05-10T07:09:57.689Z,99815.41
2023-05-10T07:12:26.007Z,99818.13
2023-05-10T07:14:53.588Z,99790.31
2023-05-10T07:17:21.442Z,99812.81
2023-05-10T07:19:48.799Z,99818.19
2023-05-10T07:22:17.847Z,99833.44
2023-05-10T07:24:45.626Z,99818.66
2023-05-10T07:27:14.166Z,99813.44
2023-05-10T07:29:41.581Z,99827.88
2023-05-10T07:32:09.228Z,99808.03
2023-05-10T07:34:36.653Z,99812.47
2023-05-10T07:37:04.377Z,99823.16
2023-05-10T07:39:31.702Z,99806.38
2023-05-10T07:41:59.412Z,99817.75
2023-05-10T07:44:28.576Z,99802.53
2023-05-10T07:46:56.892Z,99809.66
2023-05-10T07:49:27.395Z,99800.28
2023-05-10T07:51:55.000Z,99819.78
2023-05-10T07:54:22.750Z,99798.38
2023-05-10T07:56:50.412Z,99822.19
2023-05-10T07:59:18.975Z,99819.81
2023-05-10T08:01:46.779Z,99809.06
2023-05-10T08:04:14.373Z,99821.63
2023-05-10T08:06:42.135Z,99817.94
2023-05-10T08:09:10.044Z,99819.47
2023-05-10T08:11:37.865Z,99797.16
2023-05-10T08:14:05.263Z,99818.88
2023-05-10T08:16:33.656Z,99803.53
2023-05-10T08:19:01.207Z,99863.66
2023-05-10T08:21:29.168Z,99810.84
2023-05-10T08:23:56.892Z,99821.31
2023-05-10T08:26:24.609Z,99803.69
2023-05-10T08:28:51.883Z,99807.59
2023-05-10T08:31:19.869Z,99826.66
2023-05-10T08:33:47.882Z,99819.13
2023-05-10T08:36:20.834Z,99830.00
2023-05-10T08:38:52.135Z,99815.53
2023-05-10T08:41:24.972Z,99814.34
2023-05-10T08:43:53.795Z,99803.41
2023-05-10T08:46:23.214Z,99817.06
2023-05-10T08:48:55.346Z,99817.16
2023-05-10T08:51:28.352Z,99809.22
2023-05-10T08:53:56.131Z,99840.66
2023-05-10T08:56:25.228Z,99808.06
2023-05-10T08:58:53.060Z,99821.44
2023-05-10T09:01:22.649Z,99822.88
2023-05-10T09:03:52.167Z,99820.88
2023-05-10T09:06:20.111Z,99830.00
2023-05-10T09:08:49.553Z,99845.50
2023-05-10T09:11:17.643Z,99828.72
2023-05-10T09:13:45.667Z,99819.91
2023-05-10T09:16:21.343Z,99824.22
2023-05-10T09:18:50.734Z,99816.94
2023-05-10T09:21:18.570Z,99843.03
2023-05-10T09:23:51.385Z,99829.03
2023-05-10T09:26:23.840Z,99824.91
2023-05-10T09:28:54.205Z,99808.06
2023-05-10T09:31:22.029Z,99816.38
2023-05-10T09:33:52.402Z,99807.81
2023-05-10T09:36:20.672Z,99811.91
2023-05-10T09:38:52.991Z,99824.03
2023-05-10T09:41:22.915Z,99814.00
2023-05-10T09:43:51.459Z,99816.47
2023-05-10T09:46:19.199Z,99802.41
2023-05-10T09:48:48.930Z,99799.56
2023-05-10T09:51:23.751Z,99795.09
2023-05-10T09:54:09.870Z,99800.84
2023-05-10T09:56:40.145Z,99793.16
2023-05-10T09:59:09.384Z,99795.19
2023-05-10T10:01:37.801Z,99809.53
2023-05-10T10:04:07.118Z,99799.19
2023-05-10T10:06:41.637Z,99809.75
2023-05-10T10:09:09.726Z,99804.88
2023-05-10T10:11:39.109Z,99779.63
2023-05-10T10:14:07.290Z,99814.06
2023-05-10T10:16:35.370Z,99797.69
2023-05-10T10:19:03.232Z,99784.09
2023-05-10T10:21:32.242Z,99786.41
2023-05-10T10:24:00.611Z,99783.84
2023-05-10T10:26:30.726Z,99800.09
2023-05-10T10:29:13.244Z,99775.63
2023-05-10T10:31:47.454Z,99783.75
2023-05-10T10:34:29.266Z,99767.50
2023-05-10T10:36:58.317Z,99762.22
2023-05-10T10:39:28.580Z,99766.72
2023-05-10T10:41:58.334Z,99753.50
2023-05-10T10:44:32.001Z,99751.66
2023-05-10T10:47:01.708Z,99773.25
2023-05-10T10:49:31.914Z,99782.09
2023-05-10T10:52:18.372Z,99760.41
2023-05-10T10:55:03.148Z,99754.59
2023-05-10T10:57:44.767Z,99749.59
2023-05-10T11:00:33.495Z,99742.31
2023-05-10T11:03:14.698Z,99739.56
2023-05-10T11:05:44.763Z,99765.69
2023-05-10T11:08:20.668Z,99764.00
2023-05-10T11:10:54.104Z,99730.19
2023-05-10T11:13:41.478Z,99747.25
2023-05-10T11:16:20.770Z,99739.22
2023-05-10T11:19:03.444Z,99738.50
2023-05-10T11:21:35.356Z,99737.47
2023-05-10T11:24:07.113Z,99736.66
2023-05-10T11:26:37.708Z,99728.72
2023-05-10T11:29:06.205Z,99724.28
2023-05-10T11:31:33.664Z,99747.66
2023-05-10T11:34:02.899Z,99735.81
2023-05-10T11:36:34.475Z,99708.41
2023-05-10T11:39:02.101Z,99726.38
2023-05-10T11:41:33.942Z,99736.09
2023-05-10T11:44:02.962Z,99732.06
2023-05-10T11:46:30.384Z,99719.69
2023-05-10T11:49:08.011Z,99725.94
2023-05-10T11:51:40.552Z,99736.72
2023-05-10T11:54:10.700Z,99710.78
2023-05-10T11:56:42.175Z,99720.56
2023-05-10T11:59:09.938Z,99731.63
2023-05-10T12:01:37.759Z,99717.03
2023-05-10T12:04:06.126Z,99697.81
2023-05-10T12:06:40.115Z,99700.84
2023-05-10T12:09:09.381Z,99715.59
2023-05-10T12:11:43.977Z,99716.69
2023-05-10T12:14:12.430Z,99708.72
2023-05-10T12:16:39.876Z,99690.31
2023-05-10T12:19:07.693Z,99702.50
2023-05-10T12:21:35.331Z,99715.03
2023-05-10T12:24:04.759Z,99699.56
2023-05-10T12:26:32.573Z,99698.13
2023-05-10T12:29:18.291Z,99693.81
2023-05-10T12:31:58.758Z,99695.06
2023-05-10T12:34:37.163Z,99693.25
2023-05-10T12:37:05.177Z,99703.31
2023-05-10T12:39:43.870Z,99690.94
2023-05-10T12:42:11.857Z,99699.44
2023-05-10T12:44:40.298Z,99695.75
2023-05-10T12:47:07.600Z,99706.66
2023-05-10T12:49:35.352Z,99693.81
2023-05-10T12:52:02.823Z,99683.63
2023-05-10T12:54:30.793Z,99684.25
2023-05-10T12:56:57.991Z,99694.75
2023-05-10T12:59:25.575Z,99685.22
2023-05-10T13:01:52.821Z,99684.06
2023-05-10T13:04:20.498Z,99702.06
2023-05-10T13:06:48.184Z,99695.06
2023-05-10T13:09:16.374Z,99673.00
2023-05-10T13:11:43.795Z,99662.91
2023-05-10T13:14:11.323Z,99648.97
2023-05-10T13:16:38.668Z,99663.22
2023-05-10T13:19:06.274Z,99649.19
2023-05-10T13:21:33.752Z,99646.47
2023-05-10T13:24:02.441Z,99682.09
2023-05-10T13:26:29.827Z,99621.59
2023-05-10T13:28:57.685Z,99626.22
2023-05-10T13:31:25.093Z,99649.53
2023-05-10T13:33:52.697Z,99634.78
2023-05-10T13:36:20.023Z,99617.16
2023-05-10T13:38:47.725Z,99646.09
2023-05-10T13:41:15.139Z,99633.19
2023-05-10T13:43:42.732Z,99642.53
2023-05-10T13:46:10.104Z,99645.81
2023-05-10T13:48:40.591Z,99636.63
2023-05-10T13:51:08.041Z,99604.56
2023-05-10T13:53:35.613Z,99629.16
2023-05-10T13:56:04.023Z,99631.78
2023-05-10T13:58:31.570Z,99626.47
2023-05-10T14:00:59.095Z,99616.41
2023-05-10T14:03:27.190Z,99615.66
2023-05-10T14:05:54.454Z,99609.50
2023-05-10T14:08:22.680Z,99628.78
2023-05-10T14:10:50.241Z,99616.91
2023-05-10T14:13:17.869Z,99617.84
2023-05-10T14:15:45.330Z,99609.81
2023-05-10T14:18:12.987Z,99613.69
2023-05-10T14:20:41.090Z,99622.47
2023-05-10T14:23:11.245Z,99616.38
2023-05-10T14:25:41.721Z,99611.34
2023-05-10T14:28:09.488Z,99622.97
2023-05-10T14:30:37.708Z,99610.31
2023-05-10T14:33:05.505Z,99598.38
2023-05-10T14:35:32.988Z,99607.56
2023-05-10T14:38:00.616Z,99616.59
2023-05-10T14:40:28.179Z,99602.00
2023-05-10T14:42:57.327Z,99619.38
2023-05-10T14:45:24.840Z,99622.34
2023-05-10T14:47:52.547Z,99583.72
2023-05-10T14:50:35.314Z,99611.00
2023-05-10T14:53:04.636Z,99605.84
2023-05-10T14:55:31.884Z,99620.31
2023-05-10T14:57:59.811Z,99611.41
2023-05-10T15:00:31.415Z,99635.22
2023-05-10T15:02:59.924Z,99618.81
2023-05-10T15:05:27.620Z,99627.59
2023-05-10T15:07:55.762Z,99621.66
2023-05-10T15:10:23.366Z,99617.28
2023-05-10T15:12:51.539Z,99578.81
2023-05-10T15:15:19.026Z,99607.00
2023-05-10T15:17:47.026Z,99611.31
2023-05-10T15:20:14.643Z,99604.84
2023-05-10T15:22:42.371Z,99613.19
2023-05-10T15:25:10.779Z,99611.34
2023-05-10T15:27:38.467Z,99591.59
2023-05-10T15:30:06.400Z,99608.81
2023-05-10T15:32:33.968Z,99603.78
2023-05-10T15:35:01.201Z,99615.63
2023-05-10T15:37:29.015Z,99592.88
2023-05-10T15:40:03.981Z,99630.94
2023-05-10T15:42:36.459Z,99610.75
2023-05-10T15:45:04.220Z,99610.25
2023-05-10T15:47:32.147Z,99609.25
2023-05-10T15:49:59.491Z,99605.94
2023-05-10T15:52:27.449Z,99609.31
2023-05-10T15:54:55.950Z,99609.44
2023-05-10T15:57:23.685Z,99614.97
2023-05-10T15:59:51.811Z,99616.88
2023-05-10T16:02:19.597Z,99614.53
2023-05-10T16:04:47.176Z,99595.84
2023-05-10T16:07:14.790Z,99605.78
2023-05-10T16:09:42.178Z,99601.94
2023-05-10T16:12:09.939Z,99579.06
2023-05-10T16:14:37.545Z,99597.94
2023-05-10T16:17:05.330Z,99614.78
2023-05-10T16:19:37.216Z,99600.78
2023-05-10T16:22:05.399Z,99616.91
2023-05-10T16:24:33.008Z,99602.16
2023-05-10T16:27:00.845Z,99607.66
2023-05-10T16:29:28.265Z,99599.00
2023-05-10T16:31:56.015Z,99594.75
2023-05-10T16:34:24.557Z,99599.63
2023-05-10T16:36:52.306Z,99590.19
2023-05-10T16:39:19.614Z,99604.19
2023-05-10T16:41:47.174Z,99611.06
2023-05-10T16:44:14.595Z,99607.06
2023-05-10T16:46:42.426Z,99583.97
2023-05-10T16:49:10.174Z,99610.63
2023-05-10T16:51:38.061Z,99607.06
2023-05-10T16:54:05.526Z,99610.16
2023-05-10T16:56:33.367Z,99607.31
2023-05-10T16:59:00.742Z,99601.25
2023-05-10T17:01:28.524Z,99612.75
2023-05-10T17:03:56.363Z,99631.69
2023-05-10T17:06:24.076Z,99614.59
2023-05-10T17:08:51.873Z,99621.16
2023-05-10T17:11:21.238Z,99621.38
2023-05-10T17:13:48.746Z,99620.78
2023-05-10T17:16:16.492Z,99610.47
2023-05-10T17:18:45.969Z,99638.41
2023-05-10T17:21:13.877Z,99625.63
2023-05-10T17:23:41.406Z,99629.25
2023-05-10T17:26:09.048Z,99638.84
2023-05-10T17:28:36.406Z,99636.59
2023-05-10T17:31:04.237Z,99634.72
2023-05-10T17:33:31.674Z,99649.50
2023-05-10T17:36:00.690Z,99637.06
2023-05-10T17:38:28.067Z,99627.00
2023-05-10T17:40:55.684Z,99643.34
2023-05-10T17:43:23.596Z,99642.84
2023-05-10T17:45:51.334Z,99647.69
2023-05-10T17:48:18.762Z,99663.63
2023-05-10T17:50:46.372Z,99656.63
2023-05-10T17:53:14.423Z,99656.28
2023-05-10T17:55:42.961Z,99662.78
2023-05-10T17:58:12.005Z,99649.66
2023-05-10T18:00:40.172Z,99650.31
2023-05-10T18:03:07.774Z,99657.06
2023-05-10T18:05:39.970Z,99655.84
2023-05-10T18:08:07.759Z,99647.22
2023-05-10T18:10:37.387Z,99636.75
2023-05-10T18:13:08.686Z,99645.03
2023-05-10T18:15:37.244Z,99644.72
2023-05-10T18:18:05.422Z,99660.09
2023-05-10T18:20:33.507Z,99660.41
2023-05-10T18:23:00.965Z,99649.03
2023-05-10T18:25:28.876Z,99668.22
2023-05-10T18:27:56.388Z,99674.00
2023-05-10T18:30:25.378Z,99669.94
2023-05-10T18:32:52.864Z,99665.06
2023-05-10T18:35:20.857Z,99676.78
2023-05-10T18:37:48.800Z,99671.91
2023-05-10T18:40:17.695Z,99679.31
2023-05-10T18:42:46.803Z,99692.44
2023-05-10T18:45:14.894Z,99686.03
2023-05-10T18:47:43.110Z,99689.56
2023-05-10T18:50:11.251Z,99681.06
2023-05-10T18:52:38.667Z,99691.22
2023-05-10T18:55:07.097Z,99695.00
2023-05-10T18:57:41.193Z,99697.13
2023-05-10T19:00:10.871Z,99704.50
2023-05-10T19:02:39.967Z,99695.75
2023-05-10T19:05:08.841Z,99698.25
2023-05-10T19:07:36.596Z,99710.16
2023-05-10T19:10:04.466Z,99707.91
2023-05-10T19:12:31.808Z,99699.19
2023-05-10T19:14:59.417Z,99699.28
2023-05-10T19:17:26.920Z,99696.19
2023-05-10T19:19:57.735Z,99696.78
2023-05-10T19:22:43.612Z,99710.59
2023-05-10T19:25:13.495Z,99699.78
2023-05-10T19:27:40.859Z,99706.66
2023-05-10T19:30:09.057Z,99694.81
2023-05-10T19:32:38.168Z,99707.41
2023-05-10T19:35:06.348Z,99694.25
2023-05-10T19:37:33.794Z,99695.72
2023-05-10T19:40:03.754Z,99698.72
2023-05-10T19:42:33.751Z,99697.06
2023-05-10T19:45:01.503Z,99691.69
2023-05-10T19:47:28.892Z,99698.41
2023-05-10T19:49:56.769Z,99667.28
2023-05-10T19:52:24.120Z,99670.53
2023-05-10T19:54:51.898Z,99690.38
2023-05-10T19:57:19.311Z,99695.41
2023-05-10T19:59:47.092Z,99682.28
2023-05-10T20:02:14.355Z,99687.47
2023-05-10T20:04:42.512Z,99690.03
2023-05-10T20:07:12.620Z,99697.72
2023-05-10T20:09:40.476Z,99678.19
2023-05-10T20:12:08.453Z,99682.34
2023-05-10T20:14:36.166Z,99680.03
2023-05-10T20:17:03.657Z,99678.56
2023-05-10T20:19:32.543Z,99676.50
2023-05-10T20:22:00.018Z,99653.03
2023-05-10T20:24:28.128Z,99681.72
2023-05-10T20:26:57.189Z,99686.50
2023-05-10T20:29:28.956Z,99672.31
2023-05-10T20:31:57.392Z,99672.97
2023-05-10T20:34:25.278Z,99679.44
2023-05-10T20:36:54.204Z,99675.28
2023-05-10T20:39:22.024Z,99665.88
2023-05-10T20:41:52.792Z,99678.84
2023-05-10T20:44:21.476Z,99687.00
2023-05-10T20:46:50.475Z,99674.69
2023-05-10T20:49:20.100Z,99678.41
2023-05-10T20:51:48.277Z,99664.88
2023-05-10T20:54:16.958Z,99677.78
2023-05-10T20:56:45.058Z,99672.63
2023-05-10T20:59:14.110Z,99675.97
2023-05-10T21:01:42.649Z,99662.81
2023-05-10T21:04:11.878Z,99653.69
2023-05-10T21:06:40.694Z,99657.66
2023-05-10T21:09:10.033Z,99659.78
2023-05-10T21:11:38.947Z,99657.69
2023-05-10T21:14:08.425Z,99647.47
2023-05-10T21:16:36.815Z,99662.28
2023-05-10T21:19:07.647Z,99660.44
2023-05-10T21:21:37.532Z,99656.31
2023-05-10T21:24:06.583Z,99658.34
2023-05-10T21:26:34.764Z,99649.81
2023-05-10T21:29:07.605Z,99648.41
2023-05-10T21:31:35.737Z,99649.25
2023-05-10T21:34:03.825Z,99651.34
2023-05-10T21:36:31.165Z,99642.47
2023-05-10T21:38:58.737Z,99645.19
2023-05-10T21:41:26.879Z,99637.28
2023-05-10T21:43:54.625Z,99645.66
2023-05-10T21:46:22.075Z,99646.03
2023-05-10T21:48:49.754Z,99652.31
2023-05-10T21:51:17.434Z,99646.53
2023-05-10T21:53:45.130Z,99664.00
2023-05-10T21:56:14.811Z,99647.38
2023-05-10T21:58:42.612Z,99662.22
2023-05-10T22:01:12.060Z,99662.59
2023-05-10T22:03:40.369Z,99650.97
2023-05-10T22:06:08.692Z,99652.44
2023-05-10T22:08:36.539Z,99651.63
2023-05-10T22:11:03.948Z,99645.81
2023-05-10T22:13:31.669Z,99649.19
2023-05-10T22:15:59.327Z,99636.94
2023-05-10T22:18:27.249Z,99658.34
2023-05-10T22:20:54.678Z,99641.09
2023-05-10T22:23:22.860Z,99650.03
2023-05-10T22:25:51.551Z,99641.72
2023-05-10T22:28:20.563Z,99640.88
2023-05-10T22:30:48.659Z,99634.63
2023-05-10T22:33:16.515Z,99642.94
2023-05-10T22:35:46.215Z,99635.03
2023-05-10T22:38:14.745Z,99640.09
2023-05-10T22:40:42.883Z,99643.38
2023-05-10T22:43:12.192Z,99637.78
2023-05-10T22:45:39.990Z,99633.00
2023-05-10T22:48:09.940Z,99635.72
2023-05-10T22:50:37.528Z,99635.50
2023-05-10T22:53:05.239Z,99640.47
2023-05-10T22:55:33.027Z,99640.47
2023-05-10T22:58:01.281Z,99634.03
2023-05-10T23:00:28.963Z,99632.78
2023-05-10T23:02:57.586Z,99628.84
2023-05-10T23:05:25.047Z,99636.09
2023-05-10T23:07:53.716Z,99614.69
2023-05-10T23:10:21.431Z,99627.97
2023-05-10T23:12:49.280Z,99628.38
2023-05-10T23:15:16.743Z,99621.94
2023-05-10T23:17:44.449Z,99626.31
2023-05-10T23:20:13.135Z,99616.31
2023-05-10T23:22:41.253Z,99614.06
2023-05-10T23:25:09.055Z,99621.13
2023-05-10T23:27:36.785Z,99619.66
2023-05-10T23:30:04.608Z,99621.72
2023-05-10T23:32:33.586Z,99630.47
2023-05-10T23:35:01.029Z,99621.72
2023-05-10T23:37:28.912Z,99603.78
2023-05-10T23:39:56.242Z,99619.81
2023-05-10T23:42:23.972Z,99619.59
2023-05-10T23:44:52.653Z,99613.78
2023-05-10T23:47:20.602Z,99617.72
2023-05-10T23:49:49.801Z,99620.84
2023-05-10T23:52:18.991Z,99622.47
2023-05-10T23:54:46.421Z,99625.41
2023-05-10T23:57:14.163Z,99621.06
2023-05-10T23:59:41.582Z,99600.50
